sensor_id;sensor_type;location;lat;lon;timestamp;temperature;humidity
21895;DHT22;11112;51.270;7.224;2023-04-24T00:00:06;13.80;97.40
21895;DHT22;11112;51.270;7.224;2023-04-24T00:02:35;13.80;97.40
21895;DHT22;11112;51.270;7.224;2023-04-24T00:05:06;13.80;97.50
21895;DHT22;11112;51.270;7.224;2023-04-24T00:07:34;13.80;97.30
21895;DHT22;11112;51.270;7.224;2023-04-24T00:10:02;13.80;97.40
21895;DHT22;11112;51.270;7.224;2023-04-24T00:12:31;13.80;97.40
21895;DHT22;11112;51.270;7.224;2023-04-24T00:14:58;13.80;97.40
21895;DHT22;11112;51.270;7.224;2023-04-24T00:17:26;13.70;97.30
21895;DHT22;11112;51.270;7.224;2023-04-24T00:19:53;13.70;97.30
21895;DHT22;11112;51.270;7.224;2023-04-24T00:22:26;13.80;97.20
21895;DHT22;11112;51.270;7.224;2023-04-24T00:24:54;13.70;97.10
21895;DHT22;11112;51.270;7.224;2023-04-24T00:27:23;13.70;97.20
21895;DHT22;11112;51.270;7.224;2023-04-24T00:29:51;13.80;97.00
21895;DHT22;11112;51.270;7.224;2023-04-24T00:32:21;13.70;96.90
21895;DHT22;11112;51.270;7.224;2023-04-24T00:35:00;13.70;96.90
21895;DHT22;11112;51.270;7.224;2023-04-24T00:37:33;13.70;96.50
21895;DHT22;11112;51.270;7.224;2023-04-24T00:40:01;13.60;96.80
21895;DHT22;11112;51.270;7.224;2023-04-24T00:42:29;13.60;96.50
21895;DHT22;11112;51.270;7.224;2023-04-24T00:45:00;13.60;96.40
21895;DHT22;11112;51.270;7.224;2023-04-24T00:47:30;13.70;96.40
21895;DHT22;11112;51.270;7.224;2023-04-24T00:49:58;13.60;96.40
21895;DHT22;11112;51.270;7.224;2023-04-24T00:52:28;13.60;96.40
21895;DHT22;11112;51.270;7.224;2023-04-24T00:54:59;13.60;96.40
21895;DHT22;11112;51.270;7.224;2023-04-24T00:57:28;13.60;96.50
21895;DHT22;11112;51.270;7.224;2023-04-24T00:59:58;13.60;96.40
21895;DHT22;11112;51.270;7.224;2023-04-24T01:02:26;13.60;96.40
21895;DHT22;11112;51.270;7.224;2023-04-24T01:04:58;13.60;96.50
21895;DHT22;11112;51.270;7.224;2023-04-24T01:07:29;13.60;96.60
21895;DHT22;11112;51.270;7.224;2023-04-24T01:09:59;13.60;96.60
21895;DHT22;11112;51.270;7.224;2023-04-24T01:12:28;13.60;96.50
21895;DHT22;11112;51.270;7.224;2023-04-24T01:14:57;13.60;96.50
21895;DHT22;11112;51.270;7.224;2023-04-24T01:17:24;13.60;96.50
21895;DHT22;11112;51.270;7.224;2023-04-24T01:19:52;13.60;96.50
21895;DHT22;11112;51.270;7.224;2023-04-24T01:22:26;13.60;96.60
21895;DHT22;11112;51.270;7.224;2023-04-24T01:24:54;13.60;96.70
21895;DHT22;11112;51.270;7.224;2023-04-24T01:27:21;13.60;96.80
21895;DHT22;11112;51.270;7.224;2023-04-24T01:29:49;13.70;96.90
21895;DHT22;11112;51.270;7.224;2023-04-24T01:32:17;13.70;96.90
21895;DHT22;11112;51.270;7.224;2023-04-24T01:34:45;13.70;97.00
21895;DHT22;11112;51.270;7.224;2023-04-24T01:37:14;13.70;97.10
21895;DHT22;11112;51.270;7.224;2023-04-24T01:39:44;13.70;97.10
21895;DHT22;11112;51.270;7.224;2023-04-24T01:42:13;13.70;97.20
21895;DHT22;11112;51.270;7.224;2023-04-24T01:44:41;13.70;97.10
21895;DHT22;11112;51.270;7.224;2023-04-24T01:47:09;13.70;97.20
21895;DHT22;11112;51.270;7.224;2023-04-24T01:49:38;13.70;97.20
21895;DHT22;11112;51.270;7.224;2023-04-24T01:52:06;13.70;97.10
21895;DHT22;11112;51.270;7.224;2023-04-24T01:54:33;13.60;97.10
21895;DHT22;11112;51.270;7.224;2023-04-24T01:57:02;13.60;96.90
21895;DHT22;11112;51.270;7.224;2023-04-24T01:59:31;13.60;96.90
21895;DHT22;11112;51.270;7.224;2023-04-24T02:02:00;13.60;96.90
21895;DHT22;11112;51.270;7.224;2023-04-24T02:04:28;13.50;96.80
21895;DHT22;11112;51.270;7.224;2023-04-24T02:06:56;13.50;96.80
21895;DHT22;11112;51.270;7.224;2023-04-24T02:09:23;13.50;96.90
21895;DHT22;11112;51.270;7.224;2023-04-24T02:11:51;13.50;96.90
21895;DHT22;11112;51.270;7.224;2023-04-24T02:14:21;13.40;96.90
21895;DHT22;11112;51.270;7.224;2023-04-24T02:16:48;13.50;96.90
21895;DHT22;11112;51.270;7.224;2023-04-24T02:19:15;13.50;96.70
21895;DHT22;11112;51.270;7.224;2023-04-24T02:21:43;13.50;96.60
21895;DHT22;11112;51.270;7.224;2023-04-24T02:24:10;13.40;96.40
21895;DHT22;11112;51.270;7.224;2023-04-24T02:26:38;13.40;96.40
21895;DHT22;11112;51.270;7.224;2023-04-24T02:29:05;13.40;96.50
21895;DHT22;11112;51.270;7.224;2023-04-24T02:31:34;13.40;96.70
21895;DHT22;11112;51.270;7.224;2023-04-24T02:34:01;13.40;96.40
21895;DHT22;11112;51.270;7.224;2023-04-24T02:36:29;13.30;96.50
21895;DHT22;11112;51.270;7.224;2023-04-24T02:38:57;13.30;96.40
21895;DHT22;11112;51.270;7.224;2023-04-24T02:41:25;13.20;96.50
21895;DHT22;11112;51.270;7.224;2023-04-24T02:43:56;13.20;96.60
21895;DHT22;11112;51.270;7.224;2023-04-24T02:46:24;13.20;96.70
21895;DHT22;11112;51.270;7.224;2023-04-24T02:48:55;13.20;96.70
21895;DHT22;11112;51.270;7.224;2023-04-24T02:51:23;13.10;96.70
21895;DHT22;11112;51.270;7.224;2023-04-24T02:53:51;13.10;96.70
21895;DHT22;11112;51.270;7.224;2023-04-24T02:56:19;13.10;96.70
21895;DHT22;11112;51.270;7.224;2023-04-24T02:58:50;13.10;96.70
21895;DHT22;11112;51.270;7.224;2023-04-24T03:01:18;13.10;96.70
21895;DHT22;11112;51.270;7.224;2023-04-24T03:03:55;13.20;97.20
21895;DHT22;11112;51.270;7.224;2023-04-24T03:06:24;13.20;96.60
21895;DHT22;11112;51.270;7.224;2023-04-24T03:08:53;13.20;96.70
21895;DHT22;11112;51.270;7.224;2023-04-24T03:11:21;13.20;96.60
21895;DHT22;11112;51.270;7.224;2023-04-24T03:13:50;13.20;96.70
21895;DHT22;11112;51.270;7.224;2023-04-24T03:16:18;13.20;96.80
21895;DHT22;11112;51.270;7.224;2023-04-24T03:18:46;13.10;96.70
21895;DHT22;11112;51.270;7.224;2023-04-24T03:21:16;13.10;96.80
21895;DHT22;11112;51.270;7.224;2023-04-24T03:23:45;13.10;97.00
21895;DHT22;11112;51.270;7.224;2023-04-24T03:26:12;13.10;97.00
21895;DHT22;11112;51.270;7.224;2023-04-24T03:28:40;13.00;96.90
21895;DHT22;11112;51.270;7.224;2023-04-24T03:31:08;13.10;97.10
21895;DHT22;11112;51.270;7.224;2023-04-24T03:33:36;13.10;97.00
21895;DHT22;11112;51.270;7.224;2023-04-24T03:36:03;13.00;96.90
21895;DHT22;11112;51.270;7.224;2023-04-24T03:38:34;13.00;96.90
21895;DHT22;11112;51.270;7.224;2023-04-24T03:41:02;13.00;97.00
21895;DHT22;11112;51.270;7.224;2023-04-24T03:43:29;13.00;96.90
21895;DHT22;11112;51.270;7.224;2023-04-24T03:45:58;13.00;96.90
21895;DHT22;11112;51.270;7.224;2023-04-24T03:48:26;13.00;97.00
21895;DHT22;11112;51.270;7.224;2023-04-24T03:50:54;13.00;97.00
21895;DHT22;11112;51.270;7.224;2023-04-24T03:53:22;13.00;97.00
21895;DHT22;11112;51.270;7.224;2023-04-24T03:55:51;13.00;97.10
21895;DHT22;11112;51.270;7.224;2023-04-24T03:58:24;12.90;96.90
21895;DHT22;11112;51.270;7.224;2023-04-24T04:00:52;12.90;97.00
21895;DHT22;11112;51.270;7.224;2023-04-24T04:03:22;12.90;96.90
21895;DHT22;11112;51.270;7.224;2023-04-24T04:05:51;12.90;97.30
21895;DHT22;11112;51.270;7.224;2023-04-24T04:08:20;12.80;97.10
21895;DHT22;11112;51.270;7.224;2023-04-24T04:10:52;12.90;97.10
21895;DHT22;11112;51.270;7.224;2023-04-24T04:13:20;12.80;97.00
21895;DHT22;11112;51.270;7.224;2023-04-24T04:15:48;12.80;97.20
21895;DHT22;11112;51.270;7.224;2023-04-24T04:18:17;12.80;97.00
21895;DHT22;11112;51.270;7.224;2023-04-24T04:20:44;12.90;97.00
21895;DHT22;11112;51.270;7.224;2023-04-24T04:23:11;12.90;97.00
21895;DHT22;11112;51.270;7.224;2023-04-24T04:25:39;12.90;96.90
21895;DHT22;11112;51.270;7.224;2023-04-24T04:28:08;12.90;97.00
21895;DHT22;11112;51.270;7.224;2023-04-24T04:30:36;12.90;97.00
21895;DHT22;11112;51.270;7.224;2023-04-24T04:33:03;12.90;96.70
21895;DHT22;11112;51.270;7.224;2023-04-24T04:35:31;12.90;96.70
21895;DHT22;11112;51.270;7.224;2023-04-24T04:37:59;12.90;96.80
21895;DHT22;11112;51.270;7.224;2023-04-24T04:40:27;12.80;96.80
21895;DHT22;11112;51.270;7.224;2023-04-24T04:42:55;12.90;97.00
21895;DHT22;11112;51.270;7.224;2023-04-24T04:45:25;12.90;96.90
21895;DHT22;11112;51.270;7.224;2023-04-24T04:47:53;12.90;97.00
21895;DHT22;11112;51.270;7.224;2023-04-24T04:50:22;12.90;96.90
21895;DHT22;11112;51.270;7.224;2023-04-24T04:52:51;12.90;96.90
21895;DHT22;11112;51.270;7.224;2023-04-24T04:55:18;12.90;96.80
21895;DHT22;11112;51.270;7.224;2023-04-24T04:57:47;12.80;97.10
21895;DHT22;11112;51.270;7.224;2023-04-24T05:00:18;12.80;97.50
21895;DHT22;11112;51.270;7.224;2023-04-24T05:02:51;12.80;97.60
21895;DHT22;11112;51.270;7.224;2023-04-24T05:05:19;12.80;97.70
21895;DHT22;11112;51.270;7.224;2023-04-24T05:07:46;12.70;97.60
21895;DHT22;11112;51.270;7.224;2023-04-24T05:10:14;12.70;97.70
21895;DHT22;11112;51.270;7.224;2023-04-24T05:12:42;12.70;97.80
21895;DHT22;11112;51.270;7.224;2023-04-24T05:15:10;12.70;97.70
21895;DHT22;11112;51.270;7.224;2023-04-24T05:17:38;12.70;97.70
21895;DHT22;11112;51.270;7.224;2023-04-24T05:20:08;12.70;97.60
21895;DHT22;11112;51.270;7.224;2023-04-24T05:22:36;12.70;97.80
21895;DHT22;11112;51.270;7.224;2023-04-24T05:25:05;12.70;97.90
21895;DHT22;11112;51.270;7.224;2023-04-24T05:27:34;12.70;98.00
21895;DHT22;11112;51.270;7.224;2023-04-24T05:30:02;12.70;98.20
21895;DHT22;11112;51.270;7.224;2023-04-24T05:32:31;12.70;98.40
21895;DHT22;11112;51.270;7.224;2023-04-24T05:34:59;12.70;98.60
21895;DHT22;11112;51.270;7.224;2023-04-24T05:37:29;12.70;98.60
21895;DHT22;11112;51.270;7.224;2023-04-24T05:39:57;12.70;98.60
21895;DHT22;11112;51.270;7.224;2023-04-24T05:42:27;12.70;98.70
21895;DHT22;11112;51.270;7.224;2023-04-24T05:44:55;12.70;98.60
21895;DHT22;11112;51.270;7.224;2023-04-24T05:47:23;12.70;98.40
21895;DHT22;11112;51.270;7.224;2023-04-24T05:49:52;12.70;98.40
21895;DHT22;11112;51.270;7.224;2023-04-24T05:52:22;12.70;98.40
21895;DHT22;11112;51.270;7.224;2023-04-24T05:54:55;12.70;98.20
21895;DHT22;11112;51.270;7.224;2023-04-24T05:57:22;12.70;98.10
21895;DHT22;11112;51.270;7.224;2023-04-24T05:59:51;12.60;98.20
21895;DHT22;11112;51.270;7.224;2023-04-24T06:02:19;12.70;98.30
21895;DHT22;11112;51.270;7.224;2023-04-24T06:04:50;12.70;98.50
21895;DHT22;11112;51.270;7.224;2023-04-24T06:07:21;12.70;98.50
21895;DHT22;11112;51.270;7.224;2023-04-24T06:09:49;12.70;98.60
21895;DHT22;11112;51.270;7.224;2023-04-24T06:12:18;12.70;98.80
21895;DHT22;11112;51.270;7.224;2023-04-24T06:14:48;12.60;99.00
21895;DHT22;11112;51.270;7.224;2023-04-24T06:17:16;12.60;99.20
21895;DHT22;11112;51.270;7.224;2023-04-24T06:19:43;12.60;99.30
21895;DHT22;11112;51.270;7.224;2023-04-24T06:22:12;12.60;99.40
21895;DHT22;11112;51.270;7.224;2023-04-24T06:24:40;12.50;99.50
21895;DHT22;11112;51.270;7.224;2023-04-24T06:27:08;12.60;99.40
21895;DHT22;11112;51.270;7.224;2023-04-24T06:29:37;12.60;99.60
21895;DHT22;11112;51.270;7.224;2023-04-24T06:32:04;12.60;99.80
21895;DHT22;11112;51.270;7.224;2023-04-24T06:34:31;12.60;99.70
21895;DHT22;11112;51.270;7.224;2023-04-24T06:36:59;12.50;99.70
21895;DHT22;11112;51.270;7.224;2023-04-24T06:39:27;12.50;99.80
21895;DHT22;11112;51.270;7.224;2023-04-24T06:41:57;12.50;99.90
21895;DHT22;11112;51.270;7.224;2023-04-24T06:44:26;12.50;99.90
21895;DHT22;11112;51.270;7.224;2023-04-24T06:46:55;12.40;99.90
21895;DHT22;11112;51.270;7.224;2023-04-24T06:49:22;12.40;99.90
21895;DHT22;11112;51.270;7.224;2023-04-24T06:51:49;12.40;99.90
21895;DHT22;11112;51.270;7.224;2023-04-24T06:54:16;12.40;99.90
21895;DHT22;11112;51.270;7.224;2023-04-24T06:56:44;12.40;99.90
21895;DHT22;11112;51.270;7.224;2023-04-24T06:59:13;12.40;99.90
21895;DHT22;11112;51.270;7.224;2023-04-24T07:01:40;12.40;99.90
21895;DHT22;11112;51.270;7.224;2023-04-24T07:04:09;12.50;99.90
21895;DHT22;11112;51.270;7.224;2023-04-24T07:06:37;12.40;99.90
21895;DHT22;11112;51.270;7.224;2023-04-24T07:09:05;12.40;99.80
21895;DHT22;11112;51.270;7.224;2023-04-24T07:11:35;12.40;99.90
21895;DHT22;11112;51.270;7.224;2023-04-24T07:14:04;12.40;99.90
21895;DHT22;11112;51.270;7.224;2023-04-24T07:16:31;12.40;99.90
21895;DHT22;11112;51.270;7.224;2023-04-24T07:18:58;12.40;99.90
21895;DHT22;11112;51.270;7.224;2023-04-24T07:21:27;12.30;99.90
21895;DHT22;11112;51.270;7.224;2023-04-24T07:23:54;12.40;99.90
21895;DHT22;11112;51.270;7.224;2023-04-24T07:26:25;12.30;99.90
21895;DHT22;11112;51.270;7.224;2023-04-24T07:28:53;12.30;99.90
21895;DHT22;11112;51.270;7.224;2023-04-24T07:31:20;12.40;99.90
21895;DHT22;11112;51.270;7.224;2023-04-24T07:33:47;12.40;99.90
21895;DHT22;11112;51.270;7.224;2023-04-24T07:36:16;12.30;99.90
21895;DHT22;11112;51.270;7.224;2023-04-24T07:38:46;12.30;99.90
21895;DHT22;11112;51.270;7.224;2023-04-24T07:41:13;12.20;99.90
21895;DHT22;11112;51.270;7.224;2023-04-24T07:43:41;12.20;99.90
21895;DHT22;11112;51.270;7.224;2023-04-24T07:46:08;12.20;99.90
21895;DHT22;11112;51.270;7.224;2023-04-24T07:48:36;12.20;99.90
21895;DHT22;11112;51.270;7.224;2023-04-24T07:51:03;12.20;99.90
21895;DHT22;11112;51.270;7.224;2023-04-24T07:53:32;12.20;99.90
21895;DHT22;11112;51.270;7.224;2023-04-24T07:56:01;12.20;99.90
21895;DHT22;11112;51.270;7.224;2023-04-24T07:58:28;12.20;99.90
21895;DHT22;11112;51.270;7.224;2023-04-24T08:00:56;12.10;99.90
21895;DHT22;11112;51.270;7.224;2023-04-24T08:03:24;12.20;99.90
21895;DHT22;11112;51.270;7.224;2023-04-24T08:05:51;12.10;99.90
21895;DHT22;11112;51.270;7.224;2023-04-24T08:08:24;12.10;99.90
21895;DHT22;11112;51.270;7.224;2023-04-24T08:10:59;12.10;99.90
21895;DHT22;11112;51.270;7.224;2023-04-24T08:13:28;12.10;99.90
21895;DHT22;11112;51.270;7.224;2023-04-24T08:15:56;12.00;99.90
21895;DHT22;11112;51.270;7.224;2023-04-24T08:18:24;11.90;99.50
21895;DHT22;11112;51.270;7.224;2023-04-24T08:20:51;11.90;99.20
21895;DHT22;11112;51.270;7.224;2023-04-24T08:23:19;11.90;99.20
21895;DHT22;11112;51.270;7.224;2023-04-24T08:25:47;11.90;99.10
21895;DHT22;11112;51.270;7.224;2023-04-24T08:28:17;11.90;99.60
21895;DHT22;11112;51.270;7.224;2023-04-24T08:30:46;11.90;99.20
21895;DHT22;11112;51.270;7.224;2023-04-24T08:33:13;11.90;99.50
21895;DHT22;11112;51.270;7.224;2023-04-24T08:35:41;11.90;99.20
21895;DHT22;11112;51.270;7.224;2023-04-24T08:38:08;11.90;99.20
21895;DHT22;11112;51.270;7.224;2023-04-24T08:40:37;11.90;99.30
21895;DHT22;11112;51.270;7.224;2023-04-24T08:43:05;11.80;99.60
21895;DHT22;11112;51.270;7.224;2023-04-24T08:45:34;11.80;99.90
21895;DHT22;11112;51.270;7.224;2023-04-24T08:48:02;11.80;99.80
21895;DHT22;11112;51.270;7.224;2023-04-24T08:50:32;11.70;99.90
21895;DHT22;11112;51.270;7.224;2023-04-24T08:52:59;11.80;99.90
21895;DHT22;11112;51.270;7.224;2023-04-24T08:55:29;11.80;99.90
21895;DHT22;11112;51.270;7.224;2023-04-24T08:57:59;11.80;99.90
21895;DHT22;11112;51.270;7.224;2023-04-24T09:00:28;11.80;99.90
21895;DHT22;11112;51.270;7.224;2023-04-24T09:02:57;11.80;99.90
21895;DHT22;11112;51.270;7.224;2023-04-24T09:05:27;11.80;99.90
21895;DHT22;11112;51.270;7.224;2023-04-24T09:07:56;11.80;99.70
21895;DHT22;11112;51.270;7.224;2023-04-24T09:10:24;11.80;99.80
21895;DHT22;11112;51.270;7.224;2023-04-24T09:12:52;11.80;99.90
21895;DHT22;11112;51.270;7.224;2023-04-24T09:15:24;11.80;99.90
21895;DHT22;11112;51.270;7.224;2023-04-24T09:17:52;11.80;99.90
21895;DHT22;11112;51.270;7.224;2023-04-24T09:20:24;11.80;99.90
21895;DHT22;11112;51.270;7.224;2023-04-24T09:22:53;11.90;99.90
21895;DHT22;11112;51.270;7.224;2023-04-24T09:25:21;11.90;99.90
21895;DHT22;11112;51.270;7.224;2023-04-24T09:27:50;11.90;99.90
21895;DHT22;11112;51.270;7.224;2023-04-24T09:30:21;11.90;99.90
21895;DHT22;11112;51.270;7.224;2023-04-24T09:32:49;11.90;99.90
21895;DHT22;11112;51.270;7.224;2023-04-24T09:35:16;11.80;99.90
21895;DHT22;11112;51.270;7.224;2023-04-24T09:37:46;11.90;99.90
21895;DHT22;11112;51.270;7.224;2023-04-24T09:40:16;11.80;99.90
21895;DHT22;11112;51.270;7.224;2023-04-24T09:42:45;11.80;99.90
21895;DHT22;11112;51.270;7.224;2023-04-24T09:45:13;11.80;99.90
21895;DHT22;11112;51.270;7.224;2023-04-24T09:47:41;11.70;99.90
21895;DHT22;11112;51.270;7.224;2023-04-24T09:50:13;11.80;99.90
21895;DHT22;11112;51.270;7.224;2023-04-24T09:52:56;11.70;99.90
21895;DHT22;11112;51.270;7.224;2023-04-24T09:55:24;11.60;99.90
21895;DHT22;11112;51.270;7.224;2023-04-24T09:57:53;11.70;99.90
21895;DHT22;11112;51.270;7.224;2023-04-24T10:00:26;11.60;99.90
21895;DHT22;11112;51.270;7.224;2023-04-24T10:02:58;11.70;99.90
21895;DHT22;11112;51.270;7.224;2023-04-24T10:05:30;11.70;99.90
21895;DHT22;11112;51.270;7.224;2023-04-24T10:08:05;11.80;99.90
21895;DHT22;11112;51.270;7.224;2023-04-24T10:10:35;11.80;99.90
21895;DHT22;11112;51.270;7.224;2023-04-24T10:13:05;11.80;99.90
21895;DHT22;11112;51.270;7.224;2023-04-24T10:15:34;11.80;99.90
21895;DHT22;11112;51.270;7.224;2023-04-24T10:18:04;11.70;99.90
21895;DHT22;11112;51.270;7.224;2023-04-24T10:20:33;11.70;99.90
21895;DHT22;11112;51.270;7.224;2023-04-24T10:23:03;11.70;99.90
21895;DHT22;11112;51.270;7.224;2023-04-24T10:25:32;11.80;99.90
21895;DHT22;11112;51.270;7.224;2023-04-24T10:28:01;11.90;99.90
21895;DHT22;11112;51.270;7.224;2023-04-24T10:30:30;11.80;99.90
21895;DHT22;11112;51.270;7.224;2023-04-24T10:33:02;11.80;99.90
21895;DHT22;11112;51.270;7.224;2023-04-24T10:35:31;11.70;99.90
21895;DHT22;11112;51.270;7.224;2023-04-24T10:38:05;11.80;99.90
21895;DHT22;11112;51.270;7.224;2023-04-24T10:40:35;11.80;99.90
21895;DHT22;11112;51.270;7.224;2023-04-24T10:43:03;11.70;99.90
21895;DHT22;11112;51.270;7.224;2023-04-24T10:45:32;11.70;99.90
21895;DHT22;11112;51.270;7.224;2023-04-24T10:48:01;11.80;99.90
21895;DHT22;11112;51.270;7.224;2023-04-24T10:50:42;11.80;99.90
21895;DHT22;11112;51.270;7.224;2023-04-24T10:53:22;11.90;99.90
21895;DHT22;11112;51.270;7.224;2023-04-24T10:55:51;11.90;99.90
21895;DHT22;11112;51.270;7.224;2023-04-24T10:58:22;12.00;99.90
21895;DHT22;11112;51.270;7.224;2023-04-24T11:00:56;11.90;99.90
21895;DHT22;11112;51.270;7.224;2023-04-24T11:03:26;12.00;99.90
21895;DHT22;11112;51.270;7.224;2023-04-24T11:06:01;12.00;99.90
21895;DHT22;11112;51.270;7.224;2023-04-24T11:08:37;12.00;99.90
21895;DHT22;11112;51.270;7.224;2023-04-24T11:11:10;12.00;99.90
21895;DHT22;11112;51.270;7.224;2023-04-24T11:14:01;12.00;99.90
21895;DHT22;11112;51.270;7.224;2023-04-24T11:16:34;12.00;99.90
21895;DHT22;11112;51.270;7.224;2023-04-24T11:19:22;12.00;99.90
21895;DHT22;11112;51.270;7.224;2023-04-24T11:21:56;12.00;99.90
21895;DHT22;11112;51.270;7.224;2023-04-24T11:24:29;12.00;99.90
21895;DHT22;11112;51.270;7.224;2023-04-24T11:27:04;12.00;99.90
21895;DHT22;11112;51.270;7.224;2023-04-24T11:29:44;12.00;99.90
21895;DHT22;11112;51.270;7.224;2023-04-24T11:32:23;12.00;99.90
21895;DHT22;11112;51.270;7.224;2023-04-24T11:34:53;12.00;99.90
21895;DHT22;11112;51.270;7.224;2023-04-24T11:37:22;12.00;99.90
21895;DHT22;11112;51.270;7.224;2023-04-24T11:39:57;12.10;99.90
21895;DHT22;11112;51.270;7.224;2023-04-24T11:42:25;12.00;99.90
21895;DHT22;11112;51.270;7.224;2023-04-24T11:44:54;12.00;99.90
21895;DHT22;11112;51.270;7.224;2023-04-24T11:47:28;12.10;99.90
21895;DHT22;11112;51.270;7.224;2023-04-24T11:49:56;12.10;99.90
21895;DHT22;11112;51.270;7.224;2023-04-24T11:52:25;12.10;99.90
21895;DHT22;11112;51.270;7.224;2023-04-24T11:54:54;12.10;99.90
21895;DHT22;11112;51.270;7.224;2023-04-24T11:57:23;12.00;99.90
21895;DHT22;11112;51.270;7.224;2023-04-24T11:59:54;12.00;99.90
21895;DHT22;11112;51.270;7.224;2023-04-24T12:02:23;12.10;99.90
21895;DHT22;11112;51.270;7.224;2023-04-24T12:04:51;12.10;99.90
21895;DHT22;11112;51.270;7.224;2023-04-24T12:07:23;12.10;99.90
21895;DHT22;11112;51.270;7.224;2023-04-24T12:09:57;12.00;99.90
21895;DHT22;11112;51.270;7.224;2023-04-24T12:12:27;12.10;99.90
21895;DHT22;11112;51.270;7.224;2023-04-24T12:14:55;12.20;99.90
21895;DHT22;11112;51.270;7.224;2023-04-24T12:17:27;12.20;99.90
21895;DHT22;11112;51.270;7.224;2023-04-24T12:19:59;12.30;99.90
21895;DHT22;11112;51.270;7.224;2023-04-24T12:22:28;12.30;99.90
21895;DHT22;11112;51.270;7.224;2023-04-24T12:24:58;12.30;99.90
21895;DHT22;11112;51.270;7.224;2023-04-24T12:27:29;12.30;99.90
21895;DHT22;11112;51.270;7.224;2023-04-24T12:29:58;12.30;99.90
21895;DHT22;11112;51.270;7.224;2023-04-24T12:32:26;12.30;99.90
21895;DHT22;11112;51.270;7.224;2023-04-24T12:34:54;12.30;99.90
21895;DHT22;11112;51.270;7.224;2023-04-24T12:37:23;12.30;99.90
21895;DHT22;11112;51.270;7.224;2023-04-24T12:40:07;12.30;99.90
21895;DHT22;11112;51.270;7.224;2023-04-24T12:42:36;12.30;99.90
21895;DHT22;11112;51.270;7.224;2023-04-24T12:45:09;12.30;99.90
21895;DHT22;11112;51.270;7.224;2023-04-24T12:47:38;12.30;99.90
21895;DHT22;11112;51.270;7.224;2023-04-24T12:50:08;12.30;99.90
21895;DHT22;11112;51.270;7.224;2023-04-24T12:52:37;12.30;99.90
21895;DHT22;11112;51.270;7.224;2023-04-24T12:55:07;12.20;99.90
21895;DHT22;11112;51.270;7.224;2023-04-24T12:57:36;12.30;99.90
21895;DHT22;11112;51.270;7.224;2023-04-24T13:00:06;12.30;99.90
21895;DHT22;11112;51.270;7.224;2023-04-24T13:02:36;12.30;99.90
21895;DHT22;11112;51.270;7.224;2023-04-24T13:05:04;12.20;99.90
21895;DHT22;11112;51.270;7.224;2023-04-24T13:07:32;12.30;99.90
21895;DHT22;11112;51.270;7.224;2023-04-24T13:09:59;12.30;99.90
21895;DHT22;11112;51.270;7.224;2023-04-24T13:12:29;12.40;99.90
21895;DHT22;11112;51.270;7.224;2023-04-24T13:14:58;12.50;99.80
21895;DHT22;11112;51.270;7.224;2023-04-24T13:17:25;12.50;99.50
21895;DHT22;11112;51.270;7.224;2023-04-24T13:19:54;12.50;99.40
21895;DHT22;11112;51.270;7.224;2023-04-24T13:22:22;12.50;99.30
21895;DHT22;11112;51.270;7.224;2023-04-24T13:24:49;12.60;99.20
21895;DHT22;11112;51.270;7.224;2023-04-24T13:27:16;12.60;98.90
21895;DHT22;11112;51.270;7.224;2023-04-24T13:29:46;12.60;99.00
21895;DHT22;11112;51.270;7.224;2023-04-24T13:32:14;12.60;98.30
21895;DHT22;11112;51.270;7.224;2023-04-24T13:34:41;12.60;98.20
21895;DHT22;11112;51.270;7.224;2023-04-24T13:37:09;12.70;98.00
21895;DHT22;11112;51.270;7.224;2023-04-24T13:39:36;12.70;97.90
21895;DHT22;11112;51.270;7.224;2023-04-24T13:42:06;12.70;98.10
21895;DHT22;11112;51.270;7.224;2023-04-24T13:44:34;12.80;97.80
21895;DHT22;11112;51.270;7.224;2023-04-24T13:47:02;12.80;97.60
21895;DHT22;11112;51.270;7.224;2023-04-24T13:49:30;12.80;97.40
21895;DHT22;11112;51.270;7.224;2023-04-24T13:51:57;12.80;97.40
21895;DHT22;11112;51.270;7.224;2023-04-24T13:54:24;12.80;97.20
21895;DHT22;11112;51.270;7.224;2023-04-24T13:56:52;12.80;96.80
21895;DHT22;11112;51.270;7.224;2023-04-24T13:59:20;12.70;96.40
21895;DHT22;11112;51.270;7.224;2023-04-24T14:01:47;12.70;96.30
21895;DHT22;11112;51.270;7.224;2023-04-24T14:04:16;12.80;96.50
21895;DHT22;11112;51.270;7.224;2023-04-24T14:06:44;12.80;96.60
21895;DHT22;11112;51.270;7.224;2023-04-24T14:09:14;12.80;96.30
21895;DHT22;11112;51.270;7.224;2023-04-24T14:11:41;12.80;96.20
21895;DHT22;11112;51.270;7.224;2023-04-24T14:14:08;12.80;95.80
21895;DHT22;11112;51.270;7.224;2023-04-24T14:16:37;12.80;95.40
21895;DHT22;11112;51.270;7.224;2023-04-24T14:19:04;12.80;94.80
21895;DHT22;11112;51.270;7.224;2023-04-24T14:21:33;12.80;94.30
21895;DHT22;11112;51.270;7.224;2023-04-24T14:24:00;12.80;94.20
21895;DHT22;11112;51.270;7.224;2023-04-24T14:26:28;12.90;94.60
21895;DHT22;11112;51.270;7.224;2023-04-24T14:28:55;12.90;94.70
21895;DHT22;11112;51.270;7.224;2023-04-24T14:31:24;12.90;94.80
21895;DHT22;11112;51.270;7.224;2023-04-24T14:33:54;13.00;94.60
21895;DHT22;11112;51.270;7.224;2023-04-24T14:36:21;12.90;94.20
21895;DHT22;11112;51.270;7.224;2023-04-24T14:38:49;13.00;94.30
21895;DHT22;11112;51.270;7.224;2023-04-24T14:41:17;13.00;94.30
21895;DHT22;11112;51.270;7.224;2023-04-24T14:43:44;12.90;94.10
21895;DHT22;11112;51.270;7.224;2023-04-24T14:46:11;13.00;94.00
21895;DHT22;11112;51.270;7.224;2023-04-24T14:48:40;13.00;93.60
21895;DHT22;11112;51.270;7.224;2023-04-24T14:51:08;12.90;93.50
21895;DHT22;11112;51.270;7.224;2023-04-24T14:53:35;12.90;93.50
21895;DHT22;11112;51.270;7.224;2023-04-24T14:56:04;12.90;93.70
21895;DHT22;11112;51.270;7.224;2023-04-24T14:58:34;13.00;93.70
21895;DHT22;11112;51.270;7.224;2023-04-24T15:01:02;13.00;93.80
21895;DHT22;11112;51.270;7.224;2023-04-24T15:03:29;13.00;94.10
21895;DHT22;11112;51.270;7.224;2023-04-24T15:05:57;13.00;93.60
21895;DHT22;11112;51.270;7.224;2023-04-24T15:08:24;13.00;93.30
21895;DHT22;11112;51.270;7.224;2023-04-24T15:10:51;13.10;93.30
21895;DHT22;11112;51.270;7.224;2023-04-24T15:13:20;13.00;93.20
21895;DHT22;11112;51.270;7.224;2023-04-24T15:15:47;13.00;93.20
21895;DHT22;11112;51.270;7.224;2023-04-24T15:18:16;13.00;93.30
21895;DHT22;11112;51.270;7.224;2023-04-24T15:20:43;13.00;93.30
21895;DHT22;11112;51.270;7.224;2023-04-24T15:23:11;13.00;92.80
21895;DHT22;11112;51.270;7.224;2023-04-24T15:25:38;13.00;93.10
21895;DHT22;11112;51.270;7.224;2023-04-24T15:28:07;13.00;93.20
21895;DHT22;11112;51.270;7.224;2023-04-24T15:30:53;13.00;92.80
21895;DHT22;11112;51.270;7.224;2023-04-24T15:33:20;12.90;92.90
21895;DHT22;11112;51.270;7.224;2023-04-24T15:35:47;13.00;92.80
21895;DHT22;11112;51.270;7.224;2023-04-24T15:38:14;13.00;93.00
21895;DHT22;11112;51.270;7.224;2023-04-24T15:40:41;13.00;92.60